sensor_id;sensor_type;location;lat;lon;timestamp;temperature;humidity
3408;DHT22;1717;50.240;8.406;2024-03-02T00:00:16;8.90;99.90
3408;DHT22;1717;50.240;8.406;2024-03-02T00:02:47;9.00;99.90
3408;DHT22;1717;50.240;8.406;2024-03-02T00:05:16;8.90;99.90
3408;DHT22;1717;50.240;8.406;2024-03-02T00:07:43;8.90;99.90
3408;DHT22;1717;50.240;8.406;2024-03-02T00:10:14;8.90;99.90
3408;DHT22;1717;50.240;8.406;2024-03-02T00:12:43;8.90;99.90
3408;DHT22;1717;50.240;8.406;2024-03-02T00:15:34;8.90;99.90
3408;DHT22;1717;50.240;8.406;2024-03-02T00:18:06;8.80;99.90
3408;DHT22;1717;50.240;8.406;2024-03-02T00:20:33;8.90;99.90
3408;DHT22;1717;50.240;8.406;2024-03-02T00:23:03;8.90;99.90
3408;DHT22;1717;50.240;8.406;2024-03-02T00:25:37;8.90;99.90
3408;DHT22;1717;50.240;8.406;2024-03-02T00:28:05;8.90;99.90
3408;DHT22;1717;50.240;8.406;2024-03-02T00:30:56;8.90;99.90
3408;DHT22;1717;50.240;8.406;2024-03-02T00:33:26;8.90;99.90
3408;DHT22;1717;50.240;8.406;2024-03-02T00:35:54;8.90;99.90
3408;DHT22;1717;50.240;8.406;2024-03-02T00:38:21;8.90;99.90
3408;DHT22;1717;50.240;8.406;2024-03-02T00:40:48;8.90;99.90
3408;DHT22;1717;50.240;8.406;2024-03-02T00:43:42;8.90;99.90
3408;DHT22;1717;50.240;8.406;2024-03-02T00:46:12;8.80;99.90
3408;DHT22;1717;50.240;8.406;2024-03-02T00:48:42;8.70;99.90
3408;DHT22;1717;50.240;8.406;2024-03-02T00:51:12;8.80;99.90
3408;DHT22;1717;50.240;8.406;2024-03-02T00:53:38;8.80;99.90
3408;DHT22;1717;50.240;8.406;2024-03-02T00:56:09;8.80;99.90
3408;DHT22;1717;50.240;8.406;2024-03-02T00:58:37;8.70;99.90
3408;DHT22;1717;50.240;8.406;2024-03-02T01:01:04;8.80;99.90
3408;DHT22;1717;50.240;8.406;2024-03-02T01:03:34;8.70;99.90
3408;DHT22;1717;50.240;8.406;2024-03-02T01:06:01;8.70;99.90
3408;DHT22;1717;50.240;8.406;2024-03-02T01:08:27;8.70;99.90
3408;DHT22;1717;50.240;8.406;2024-03-02T01:10:54;8.70;99.90
3408;DHT22;1717;50.240;8.406;2024-03-02T01:13:22;8.70;99.90
3408;DHT22;1717;50.240;8.406;2024-03-02T01:15:49;8.70;99.90
3408;DHT22;1717;50.240;8.406;2024-03-02T01:18:16;8.60;99.90
3408;DHT22;1717;50.240;8.406;2024-03-02T01:20:45;8.50;99.90
3408;DHT22;1717;50.240;8.406;2024-03-02T01:23:12;8.50;99.90
3408;DHT22;1717;50.240;8.406;2024-03-02T01:25:38;8.60;99.90
3408;DHT22;1717;50.240;8.406;2024-03-02T01:28:06;8.50;99.90
3408;DHT22;1717;50.240;8.406;2024-03-02T01:30:32;8.50;99.90
3408;DHT22;1717;50.240;8.406;2024-03-02T01:33:00;8.40;99.90
3408;DHT22;1717;50.240;8.406;2024-03-02T01:35:27;8.40;99.90
3408;DHT22;1717;50.240;8.406;2024-03-02T01:37:55;8.40;99.90
3408;DHT22;1717;50.240;8.406;2024-03-02T01:40:22;8.40;99.90
3408;DHT22;1717;50.240;8.406;2024-03-02T01:42:52;8.40;99.90
3408;DHT22;1717;50.240;8.406;2024-03-02T01:45:19;8.40;99.90
3408;DHT22;1717;50.240;8.406;2024-03-02T01:47:47;8.40;99.90
3408;DHT22;1717;50.240;8.406;2024-03-02T01:50:14;8.40;99.90
3408;DHT22;1717;50.240;8.406;2024-03-02T01:52:41;8.40;99.90
3408;DHT22;1717;50.240;8.406;2024-03-02T01:55:11;8.50;99.90
3408;DHT22;1717;50.240;8.406;2024-03-02T01:57:37;8.50;99.90
3408;DHT22;1717;50.240;8.406;2024-03-02T02:00:05;8.50;99.90
3408;DHT22;1717;50.240;8.406;2024-03-02T02:02:35;8.50;99.90
3408;DHT22;1717;50.240;8.406;2024-03-02T02:05:02;8.50;99.90
3408;DHT22;1717;50.240;8.406;2024-03-02T02:07:29;8.40;99.90
3408;DHT22;1717;50.240;8.406;2024-03-02T02:09:56;8.50;99.90
3408;DHT22;1717;50.240;8.406;2024-03-02T02:12:25;8.50;99.90
3408;DHT22;1717;50.240;8.406;2024-03-02T02:14:52;8.50;99.90
3408;DHT22;1717;50.240;8.406;2024-03-02T02:17:19;8.50;99.90
3408;DHT22;1717;50.240;8.406;2024-03-02T02:19:45;8.60;99.90
3408;DHT22;1717;50.240;8.406;2024-03-02T02:22:14;8.50;99.90
3408;DHT22;1717;50.240;8.406;2024-03-02T02:24:41;8.50;99.90
3408;DHT22;1717;50.240;8.406;2024-03-02T02:27:08;8.50;99.90
3408;DHT22;1717;50.240;8.406;2024-03-02T02:29:35;8.50;99.90
3408;DHT22;1717;50.240;8.406;2024-03-02T02:32:02;8.50;99.90
3408;DHT22;1717;50.240;8.406;2024-03-02T02:34:29;8.50;99.90
3408;DHT22;1717;50.240;8.406;2024-03-02T02:36:56;8.50;99.90
3408;DHT22;1717;50.240;8.406;2024-03-02T02:39:24;8.50;99.90
3408;DHT22;1717;50.240;8.406;2024-03-02T02:41:51;8.50;99.90
3408;DHT22;1717;50.240;8.406;2024-03-02T02:44:18;8.50;99.90
3408;DHT22;1717;50.240;8.406;2024-03-02T02:46:45;8.50;99.90
3408;DHT22;1717;50.240;8.406;2024-03-02T02:49:12;8.50;99.90
3408;DHT22;1717;50.240;8.406;2024-03-02T02:51:38;8.50;99.90
3408;DHT22;1717;50.240;8.406;2024-03-02T02:54:05;8.40;99.90
3408;DHT22;1717;50.240;8.406;2024-03-02T02:56:33;8.40;99.90
3408;DHT22;1717;50.240;8.406;2024-03-02T02:59:00;8.40;99.90
3408;DHT22;1717;50.240;8.406;2024-03-02T03:01:27;8.40;99.90
3408;DHT22;1717;50.240;8.406;2024-03-02T03:03:54;8.40;99.90
3408;DHT22;1717;50.240;8.406;2024-03-02T03:06:21;8.30;99.90
3408;DHT22;1717;50.240;8.406;2024-03-02T03:08:47;8.50;99.90
3408;DHT22;1717;50.240;8.406;2024-03-02T03:11:14;8.40;99.90
3408;DHT22;1717;50.240;8.406;2024-03-02T03:13:42;8.40;99.90
3408;DHT22;1717;50.240;8.406;2024-03-02T03:16:09;8.40;99.90
3408;DHT22;1717;50.240;8.406;2024-03-02T03:18:36;8.40;99.90
3408;DHT22;1717;50.240;8.406;2024-03-02T03:21:04;8.40;99.90
3408;DHT22;1717;50.240;8.406;2024-03-02T03:23:30;8.30;99.90
3408;DHT22;1717;50.240;8.406;2024-03-02T03:25:57;8.40;99.90
3408;DHT22;1717;50.240;8.406;2024-03-02T03:28:24;8.30;99.90
3408;DHT22;1717;50.240;8.406;2024-03-02T03:30:52;8.40;99.90
3408;DHT22;1717;50.240;8.406;2024-03-02T03:33:19;8.40;99.90
3408;DHT22;1717;50.240;8.406;2024-03-02T03:35:46;8.40;99.90
3408;DHT22;1717;50.240;8.406;2024-03-02T03:38:13;8.40;99.90
3408;DHT22;1717;50.240;8.406;2024-03-02T03:40:40;8.40;99.90
3408;DHT22;1717;50.240;8.406;2024-03-02T03:43:07;8.40;99.90
3408;DHT22;1717;50.240;8.406;2024-03-02T03:45:34;8.40;99.90
3408;DHT22;1717;50.240;8.406;2024-03-02T03:48:02;8.40;99.90
3408;DHT22;1717;50.240;8.406;2024-03-02T03:50:29;8.40;99.90
3408;DHT22;1717;50.240;8.406;2024-03-02T03:52:56;8.40;99.90
3408;DHT22;1717;50.240;8.406;2024-03-02T03:55:23;8.30;99.90
3408;DHT22;1717;50.240;8.406;2024-03-02T03:57:49;8.30;99.90
3408;DHT22;1717;50.240;8.406;2024-03-02T04:00:17;8.30;99.90
3408;DHT22;1717;50.240;8.406;2024-03-02T04:02:44;8.30;99.90
3408;DHT22;1717;50.240;8.406;2024-03-02T04:05:12;8.30;99.90
3408;DHT22;1717;50.240;8.406;2024-03-02T04:07:39;8.30;99.90
3408;DHT22;1717;50.240;8.406;2024-03-02T04:10:07;8.30;99.90
3408;DHT22;1717;50.240;8.406;2024-03-02T04:12:35;8.30;99.90
3408;DHT22;1717;50.240;8.406;2024-03-02T04:15:04;8.20;99.90
3408;DHT22;1717;50.240;8.406;2024-03-02T04:17:32;8.20;99.90
3408;DHT22;1717;50.240;8.406;2024-03-02T04:19:59;8.20;99.90
3408;DHT22;1717;50.240;8.406;2024-03-02T04:22:27;8.20;99.90
3408;DHT22;1717;50.240;8.406;2024-03-02T04:24:54;8.20;99.90
3408;DHT22;1717;50.240;8.406;2024-03-02T04:27:21;8.20;99.90
3408;DHT22;1717;50.240;8.406;2024-03-02T04:29:48;8.20;99.90
3408;DHT22;1717;50.240;8.406;2024-03-02T04:32:15;8.20;99.90
3408;DHT22;1717;50.240;8.406;2024-03-02T04:34:42;8.20;99.90
3408;DHT22;1717;50.240;8.406;2024-03-02T04:37:11;8.20;99.90
3408;DHT22;1717;50.240;8.406;2024-03-02T04:39:41;8.20;99.90
3408;DHT22;1717;50.240;8.406;2024-03-02T04:42:08;8.20;99.90
3408;DHT22;1717;50.240;8.406;2024-03-02T04:44:34;8.20;99.90
3408;DHT22;1717;50.240;8.406;2024-03-02T04:47:02;8.20;99.90
3408;DHT22;1717;50.240;8.406;2024-03-02T04:49:29;8.20;99.90
3408;DHT22;1717;50.240;8.406;2024-03-02T04:51:56;8.20;99.90
3408;DHT22;1717;50.240;8.406;2024-03-02T04:54:24;8.20;99.90
3408;DHT22;1717;50.240;8.406;2024-03-02T04:56:52;8.20;99.90
3408;DHT22;1717;50.240;8.406;2024-03-02T04:59:19;8.10;99.90
3408;DHT22;1717;50.240;8.406;2024-03-02T05:01:46;8.10;99.90
3408;DHT22;1717;50.240;8.406;2024-03-02T05:04:13;8.10;99.90
3408;DHT22;1717;50.240;8.406;2024-03-02T05:06:41;8.10;99.90
3408;DHT22;1717;50.240;8.406;2024-03-02T05:09:07;8.10;99.90
3408;DHT22;1717;50.240;8.406;2024-03-02T05:11:34;8.10;99.90
3408;DHT22;1717;50.240;8.406;2024-03-02T05:14:16;8.20;99.90
3408;DHT22;1717;50.240;8.406;2024-03-02T05:16:43;8.10;99.90
3408;DHT22;1717;50.240;8.406;2024-03-02T05:19:10;8.10;99.90
3408;DHT22;1717;50.240;8.406;2024-03-02T05:21:37;8.00;99.90
3408;DHT22;1717;50.240;8.406;2024-03-02T05:24:04;8.00;99.90
3408;DHT22;1717;50.240;8.406;2024-03-02T05:26:31;8.00;99.90
3408;DHT22;1717;50.240;8.406;2024-03-02T05:28:58;8.00;99.90
3408;DHT22;1717;50.240;8.406;2024-03-02T05:31:26;8.00;99.90
3408;DHT22;1717;50.240;8.406;2024-03-02T05:33:53;8.10;99.90
3408;DHT22;1717;50.240;8.406;2024-03-02T05:36:19;8.10;99.90
3408;DHT22;1717;50.240;8.406;2024-03-02T05:38:47;8.10;99.90
3408;DHT22;1717;50.240;8.406;2024-03-02T05:41:14;8.10;99.90
3408;DHT22;1717;50.240;8.406;2024-03-02T05:43:40;8.10;99.90
3408;DHT22;1717;50.240;8.406;2024-03-02T05:46:07;8.10;99.90
3408;DHT22;1717;50.240;8.406;2024-03-02T05:48:35;8.10;99.90
3408;DHT22;1717;50.240;8.406;2024-03-02T05:51:03;8.20;99.90
3408;DHT22;1717;50.240;8.406;2024-03-02T05:53:29;8.20;99.90
3408;DHT22;1717;50.240;8.406;2024-03-02T05:55:56;8.20;99.90
3408;DHT22;1717;50.240;8.406;2024-03-02T05:58:23;8.30;99.90
3408;DHT22;1717;50.240;8.406;2024-03-02T06:01:03;8.30;99.90
3408;DHT22;1717;50.240;8.406;2024-03-02T06:03:30;8.30;99.90
3408;DHT22;1717;50.240;8.406;2024-03-02T06:05:58;8.40;99.90
3408;DHT22;1717;50.240;8.406;2024-03-02T06:08:25;8.40;99.90
3408;DHT22;1717;50.240;8.406;2024-03-02T06:10:52;8.40;99.90
3408;DHT22;1717;50.240;8.406;2024-03-02T06:13:19;8.40;99.90
3408;DHT22;1717;50.240;8.406;2024-03-02T06:15:45;8.50;99.90
3408;DHT22;1717;50.240;8.406;2024-03-02T06:18:12;8.50;99.90
3408;DHT22;1717;50.240;8.406;2024-03-02T06:20:39;8.40;99.90
3408;DHT22;1717;50.240;8.406;2024-03-02T06:23:07;8.50;99.90
3408;DHT22;1717;50.240;8.406;2024-03-02T06:25:34;8.50;99.90
3408;DHT22;1717;50.240;8.406;2024-03-02T06:28:01;8.50;99.90
3408;DHT22;1717;50.240;8.406;2024-03-02T06:30:29;8.50;99.90
3408;DHT22;1717;50.240;8.406;2024-03-02T06:32:56;8.60;99.90
3408;DHT22;1717;50.240;8.406;2024-03-02T06:35:23;8.60;99.90
3408;DHT22;1717;50.240;8.406;2024-03-02T06:37:50;8.50;99.90
3408;DHT22;1717;50.240;8.406;2024-03-02T06:40:18;8.50;99.90
3408;DHT22;1717;50.240;8.406;2024-03-02T06:42:46;8.50;99.90
3408;DHT22;1717;50.240;8.406;2024-03-02T06:45:13;8.60;99.90
3408;DHT22;1717;50.240;8.406;2024-03-02T06:47:40;8.60;99.90
3408;DHT22;1717;50.240;8.406;2024-03-02T06:50:08;8.60;99.90
3408;DHT22;1717;50.240;8.406;2024-03-02T06:52:34;8.70;99.90
3408;DHT22;1717;50.240;8.406;2024-03-02T06:55:01;8.70;99.90
3408;DHT22;1717;50.240;8.406;2024-03-02T06:57:30;8.60;99.90
3408;DHT22;1717;50.240;8.406;2024-03-02T06:59:57;8.60;99.90
3408;DHT22;1717;50.240;8.406;2024-03-02T07:02:25;8.60;99.90
3408;DHT22;1717;50.240;8.406;2024-03-02T07:04:52;8.60;99.90
3408;DHT22;1717;50.240;8.406;2024-03-02T07:07:19;8.60;99.90
3408;DHT22;1717;50.240;8.406;2024-03-02T07:09:46;8.60;99.90
3408;DHT22;1717;50.240;8.406;2024-03-02T07:12:13;8.60;99.90
3408;DHT22;1717;50.240;8.406;2024-03-02T07:14:41;8.50;99.90
3408;DHT22;1717;50.240;8.406;2024-03-02T07:17:33;8.60;99.90
3408;DHT22;1717;50.240;8.406;2024-03-02T07:20:01;8.60;99.90
3408;DHT22;1717;50.240;8.406;2024-03-02T07:22:28;8.60;99.90
3408;DHT22;1717;50.240;8.406;2024-03-02T07:24:55;8.60;99.90
3408;DHT22;1717;50.240;8.406;2024-03-02T07:27:22;8.60;99.90
3408;DHT22;1717;50.240;8.406;2024-03-02T07:29:50;8.60;99.90
3408;DHT22;1717;50.240;8.406;2024-03-02T07:32:17;8.60;99.90
3408;DHT22;1717;50.240;8.406;2024-03-02T07:34:44;8.60;99.90
3408;DHT22;1717;50.240;8.406;2024-03-02T07:37:11;8.70;99.90
3408;DHT22;1717;50.240;8.406;2024-03-02T07:39:38;8.70;99.90
3408;DHT22;1717;50.240;8.406;2024-03-02T07:42:05;8.70;99.90
3408;DHT22;1717;50.240;8.406;2024-03-02T07:44:32;8.70;99.90
3408;DHT22;1717;50.240;8.406;2024-03-02T07:47:00;8.70;99.90
3408;DHT22;1717;50.240;8.406;2024-03-02T07:49:27;8.80;99.90
3408;DHT22;1717;50.240;8.406;2024-03-02T07:51:54;8.90;99.90
3408;DHT22;1717;50.240;8.406;2024-03-02T07:54:21;8.90;99.90
3408;DHT22;1717;50.240;8.406;2024-03-02T07:56:47;8.90;99.90
3408;DHT22;1717;50.240;8.406;2024-03-02T07:59:14;9.00;99.90
3408;DHT22;1717;50.240;8.406;2024-03-02T08:01:41;9.00;99.90
3408;DHT22;1717;50.240;8.406;2024-03-02T08:04:09;9.10;99.90
3408;DHT22;1717;50.240;8.406;2024-03-02T08:06:36;9.10;99.90
3408;DHT22;1717;50.240;8.406;2024-03-02T08:09:03;9.30;99.90
3408;DHT22;1717;50.240;8.406;2024-03-02T08:11:35;9.30;99.90
3408;DHT22;1717;50.240;8.406;2024-03-02T08:14:02;9.30;99.90
3408;DHT22;1717;50.240;8.406;2024-03-02T08:16:29;9.30;99.90
3408;DHT22;1717;50.240;8.406;2024-03-02T08:18:56;9.40;99.90
3408;DHT22;1717;50.240;8.406;2024-03-02T08:21:25;9.50;99.90
3408;DHT22;1717;50.240;8.406;2024-03-02T08:23:56;9.50;99.90
3408;DHT22;1717;50.240;8.406;2024-03-02T08:26:23;9.50;99.90
3408;DHT22;1717;50.240;8.406;2024-03-02T08:28:49;9.60;99.90
3408;DHT22;1717;50.240;8.406;2024-03-02T08:31:16;9.70;99.90
3408;DHT22;1717;50.240;8.406;2024-03-02T08:33:43;9.80;99.90
3408;DHT22;1717;50.240;8.406;2024-03-02T08:36:10;9.90;99.90
3408;DHT22;1717;50.240;8.406;2024-03-02T08:38:38;10.00;99.90
3408;DHT22;1717;50.240;8.406;2024-03-02T08:41:05;9.90;99.90
3408;DHT22;1717;50.240;8.406;2024-03-02T08:43:33;10.10;99.90
3408;DHT22;1717;50.240;8.406;2024-03-02T08:46:00;10.20;99.90
3408;DHT22;1717;50.240;8.406;2024-03-02T08:48:27;10.20;99.90
3408;DHT22;1717;50.240;8.406;2024-03-02T08:50:54;10.20;99.90
3408;DHT22;1717;50.240;8.406;2024-03-02T08:53:21;10.30;99.90
3408;DHT22;1717;50.240;8.406;2024-03-02T08:55:49;10.40;99.90
3408;DHT22;1717;50.240;8.406;2024-03-02T08:58:16;10.40;99.90
3408;DHT22;1717;50.240;8.406;2024-03-02T09:00:43;10.40;99.80
3408;DHT22;1717;50.240;8.406;2024-03-02T09:03:10;10.50;99.80
3408;DHT22;1717;50.240;8.406;2024-03-02T09:05:37;10.50;99.70
3408;DHT22;1717;50.240;8.406;2024-03-02T09:08:04;10.50;99.80
3408;DHT22;1717;50.240;8.406;2024-03-02T09:10:32;10.50;99.70
3408;DHT22;1717;50.240;8.406;2024-03-02T09:13:00;10.60;99.80
3408;DHT22;1717;50.240;8.406;2024-03-02T09:15:28;10.60;99.70
3408;DHT22;1717;50.240;8.406;2024-03-02T09:17:54;10.60;99.50
3408;DHT22;1717;50.240;8.406;2024-03-02T09:20:22;10.60;99.40
3408;DHT22;1717;50.240;8.406;2024-03-02T09:22:49;10.60;99.40
3408;DHT22;1717;50.240;8.406;2024-03-02T09:25:16;10.50;99.30
3408;DHT22;1717;50.240;8.406;2024-03-02T09:27:42;10.70;99.40
3408;DHT22;1717;50.240;8.406;2024-03-02T09:30:12;10.70;99.40
3408;DHT22;1717;50.240;8.406;2024-03-02T09:32:39;10.90;99.40
3408;DHT22;1717;50.240;8.406;2024-03-02T09:35:07;10.80;99.20
3408;DHT22;1717;50.240;8.406;2024-03-02T09:37:34;10.70;99.00
3408;DHT22;1717;50.240;8.406;2024-03-02T09:40:01;10.80;99.10
3408;DHT22;1717;50.240;8.406;2024-03-02T09:42:29;10.80;98.90
3408;DHT22;1717;50.240;8.406;2024-03-02T09:44:57;10.90;99.10
3408;DHT22;1717;50.240;8.406;2024-03-02T09:47:25;11.00;98.90
3408;DHT22;1717;50.240;8.406;2024-03-02T09:49:52;11.10;98.80
3408;DHT22;1717;50.240;8.406;2024-03-02T09:52:19;11.20;98.80
3408;DHT22;1717;50.240;8.406;2024-03-02T09:54:47;11.20;98.70
3408;DHT22;1717;50.240;8.406;2024-03-02T09:57:14;11.30;98.80
3408;DHT22;1717;50.240;8.406;2024-03-02T09:59:41;11.40;98.80
3408;DHT22;1717;50.240;8.406;2024-03-02T10:02:08;11.40;98.70
3408;DHT22;1717;50.240;8.406;2024-03-02T10:04:36;11.50;98.60
3408;DHT22;1717;50.240;8.406;2024-03-02T10:07:10;11.60;98.50
3408;DHT22;1717;50.240;8.406;2024-03-02T10:09:38;11.70;98.40
3408;DHT22;1717;50.240;8.406;2024-03-02T10:12:06;11.70;98.10
3408;DHT22;1717;50.240;8.406;2024-03-02T10:14:34;11.80;98.20
3408;DHT22;1717;50.240;8.406;2024-03-02T10:17:04;11.90;98.10
3408;DHT22;1717;50.240;8.406;2024-03-02T10:19:32;11.90;97.90
3408;DHT22;1717;50.240;8.406;2024-03-02T10:22:02;12.00;98.00
3408;DHT22;1717;50.240;8.406;2024-03-02T10:24:36;12.10;98.00
3408;DHT22;1717;50.240;8.406;2024-03-02T10:27:07;12.10;97.80
3408;DHT22;1717;50.240;8.406;2024-03-02T10:29:37;12.20;97.70
3408;DHT22;1717;50.240;8.406;2024-03-02T10:32:05;12.20;97.50
3408;DHT22;1717;50.240;8.406;2024-03-02T10:34:33;12.30;97.40
3408;DHT22;1717;50.240;8.406;2024-03-02T10:37:01;12.20;96.60
3408;DHT22;1717;50.240;8.406;2024-03-02T10:39:28;12.30;96.50
3408;DHT22;1717;50.240;8.406;2024-03-02T10:41:58;12.40;96.50
3408;DHT22;1717;50.240;8.406;2024-03-02T10:44:29;12.40;95.90
3408;DHT22;1717;50.240;8.406;2024-03-02T10:46:57;12.30;94.20
3408;DHT22;1717;50.240;8.406;2024-03-02T10:49:26;12.30;94.50
3408;DHT22;1717;50.240;8.406;2024-03-02T10:51:53;12.30;94.60
3408;DHT22;1717;50.240;8.406;2024-03-02T10:54:22;12.40;94.80
3408;DHT22;1717;50.240;8.406;2024-03-02T10:56:53;12.50;94.80
3408;DHT22;1717;50.240;8.406;2024-03-02T10:59:26;12.50;94.60
3408;DHT22;1717;50.240;8.406;2024-03-02T11:01:56;12.60;94.70
3408;DHT22;1717;50.240;8.406;2024-03-02T11:04:24;12.60;94.70
3408;DHT22;1717;50.240;8.406;2024-03-02T11:06:51;12.80;94.70
3408;DHT22;1717;50.240;8.406;2024-03-02T11:09:19;12.80;94.60
3408;DHT22;1717;50.240;8.406;2024-03-02T11:11:54;12.90;94.70
3408;DHT22;1717;50.240;8.406;2024-03-02T11:14:24;13.00;94.60
3408;DHT22;1717;50.240;8.406;2024-03-02T11:16:52;13.10;94.40
3408;DHT22;1717;50.240;8.406;2024-03-02T11:19:19;13.00;93.60
3408;DHT22;1717;50.240;8.406;2024-03-02T11:21:48;13.10;94.00
3408;DHT22;1717;50.240;8.406;2024-03-02T11:24:31;13.20;94.30
3408;DHT22;1717;50.240;8.406;2024-03-02T11:27:04;13.30;94.30
3408;DHT22;1717;50.240;8.406;2024-03-02T11:29:45;13.40;94.20
3408;DHT22;1717;50.240;8.406;2024-03-02T11:32:18;13.50;93.90
3408;DHT22;1717;50.240;8.406;2024-03-02T11:34:47;13.70;93.80
3408;DHT22;1717;50.240;8.406;2024-03-02T11:37:15;13.60;93.10
3408;DHT22;1717;50.240;8.406;2024-03-02T11:39:44;13.80;93.40
3408;DHT22;1717;50.240;8.406;2024-03-02T11:42:13;13.80;93.50
3408;DHT22;1717;50.240;8.406;2024-03-02T11:44:43;13.80;93.30
3408;DHT22;1717;50.240;8.406;2024-03-02T11:47:12;13.90;92.90
3408;DHT22;1717;50.240;8.406;2024-03-02T11:49:41;14.00;93.20
3408;DHT22;1717;50.240;8.406;2024-03-02T11:52:09;14.00;92.70
3408;DHT22;1717;50.240;8.406;2024-03-02T11:54:37;14.20;92.80
3408;DHT22;1717;50.240;8.406;2024-03-02T11:57:06;14.30;92.90
3408;DHT22;1717;50.240;8.406;2024-03-02T11:59:35;14.20;92.70
3408;DHT22;1717;50.240;8.406;2024-03-02T12:02:02;14.30;92.30
3408;DHT22;1717;50.240;8.406;2024-03-02T12:04:29;14.30;92.70
3408;DHT22;1717;50.240;8.406;2024-03-02T12:06:59;14.30;92.40
3408;DHT22;1717;50.240;8.406;2024-03-02T12:09:26;14.50;92.30
3408;DHT22;1717;50.240;8.406;2024-03-02T12:12:04;14.40;91.80
3408;DHT22;1717;50.240;8.406;2024-03-02T12:14:31;14.50;92.00
3408;DHT22;1717;50.240;8.406;2024-03-02T12:16:59;14.50;91.60
3408;DHT22;1717;50.240;8.406;2024-03-02T12:19:26;14.60;91.60
3408;DHT22;1717;50.240;8.406;2024-03-02T12:21:55;14.60;91.30
3408;DHT22;1717;50.240;8.406;2024-03-02T12:24:23;14.60;91.60
3408;DHT22;1717;50.240;8.406;2024-03-02T12:26:51;14.60;91.10
3408;DHT22;1717;50.240;8.406;2024-03-02T12:29:19;14.50;90.80
3408;DHT22;1717;50.240;8.406;2024-03-02T12:31:48;14.60;90.90
3408;DHT22;1717;50.240;8.406;2024-03-02T12:34:17;14.80;91.10
3408;DHT22;1717;50.240;8.406;2024-03-02T12:36:46;14.50;90.80
3408;DHT22;1717;50.240;8.406;2024-03-02T12:39:15;14.50;90.90
3408;DHT22;1717;50.240;8.406;2024-03-02T12:41:42;14.60;90.90
3408;DHT22;1717;50.240;8.406;2024-03-02T12:44:09;14.60;90.70
3408;DHT22;1717;50.240;8.406;2024-03-02T12:46:36;14.50;90.50
3408;DHT22;1717;50.240;8.406;2024-03-02T12:49:08;14.50;90.60
3408;DHT22;1717;50.240;8.406;2024-03-02T12:51:39;14.60;90.50
3408;DHT22;1717;50.240;8.406;2024-03-02T12:54:06;14.70;90.50
3408;DHT22;1717;50.240;8.406;2024-03-02T12:56:33;14.40;89.20
3408;DHT22;1717;50.240;8.406;2024-03-02T12:59:01;14.50;90.40
3408;DHT22;1717;50.240;8.406;2024-03-02T13:01:28;14.40;90.40
3408;DHT22;1717;50.240;8.406;2024-03-02T13:03:57;14.50;90.40
3408;DHT22;1717;50.240;8.406;2024-03-02T13:06:25;14.60;90.10
3408;DHT22;1717;50.240;8.406;2024-03-02T13:08:55;14.60;90.10
3408;DHT22;1717;50.240;8.406;2024-03-02T13:11:23;14.60;89.60
3408;DHT22;1717;50.240;8.406;2024-03-02T13:13:51;14.60;89.40
3408;DHT22;1717;50.240;8.406;2024-03-02T13:16:18;14.60;88.40
3408;DHT22;1717;50.240;8.406;2024-03-02T13:18:46;14.60;88.30
3408;DHT22;1717;50.240;8.406;2024-03-02T13:21:13;14.70;88.30
3408;DHT22;1717;50.240;8.406;2024-03-02T13:23:41;14.60;87.60
3408;DHT22;1717;50.240;8.406;2024-03-02T13:26:09;14.60;87.50
3408;DHT22;1717;50.240;8.406;2024-03-02T13:28:38;14.60;87.40
3408;DHT22;1717;50.240;8.406;2024-03-02T13:31:05;14.60;86.70
3408;DHT22;1717;50.240;8.406;2024-03-02T13:33:32;14.50;85.80
3408;DHT22;1717;50.240;8.406;2024-03-02T13:35:59;14.50;86.40
3408;DHT22;1717;50.240;8.406;2024-03-02T13:38:27;14.60;87.80
3408;DHT22;1717;50.240;8.406;2024-03-02T13:40:54;14.80;87.60
3408;DHT22;1717;50.240;8.406;2024-03-02T13:43:22;14.80;87.70
3408;DHT22;1717;50.240;8.406;2024-03-02T13:45:50;14.90;87.60
3408;DHT22;1717;50.240;8.406;2024-03-02T13:48:17;15.00;87.60
3408;DHT22;1717;50.240;8.406;2024-03-02T13:50:45;15.10;87.70
3408;DHT22;1717;50.240;8.406;2024-03-02T13:53:12;15.20;87.50
3408;DHT22;1717;50.240;8.406;2024-03-02T13:55:39;15.10;85.90
3408;DHT22;1717;50.240;8.406;2024-03-02T13:58:07;15.20;86.80
3408;DHT22;1717;50.240;8.406;2024-03-02T14:00:36;15.20;86.50
3408;DHT22;1717;50.240;8.406;2024-03-02T14:03:04;15.30;87.20
3408;DHT22;1717;50.240;8.406;2024-03-02T14:05:32;15.40;87.20
3408;DHT22;1717;50.240;8.406;2024-03-02T14:07:59;15.60;87.00
3408;DHT22;1717;50.240;8.406;2024-03-02T14:10:26;15.70;86.50
3408;DHT22;1717;50.240;8.406;2024-03-02T14:12:54;15.80;87.60
3408;DHT22;1717;50.240;8.406;2024-03-02T14:15:22;15.80;86.20
3408;DHT22;1717;50.240;8.406;2024-03-02T14:17:50;15.90;85.70
3408;DHT22;1717;50.240;8.406;2024-03-02T14:20:17;15.90;85.60
3408;DHT22;1717;50.240;8.406;2024-03-02T14:22:48;16.00;85.80
3408;DHT22;1717;50.240;8.406;2024-03-02T14:25:15;16.10;85.80
3408;DHT22;1717;50.240;8.406;2024-03-02T14:27:42;16.20;84.60
3408;DHT22;1717;50.240;8.406;2024-03-02T14:30:10;16.20;84.60
3408;DHT22;1717;50.240;8.406;2024-03-02T14:32:37;16.30;84.20
3408;DHT22;1717;50.240;8.406;2024-03-02T14:35:06;16.30;84.20
3408;DHT22;1717;50.240;8.406;2024-03-02T14:37:35;16.40;84.40
3408;DHT22;1717;50.240;8.406;2024-03-02T14:40:02;16.50;84.20
3408;DHT22;1717;50.240;8.406;2024-03-02T14:42:32;16.50;84.10
3408;DHT22;1717;50.240;8.406;2024-03-02T14:44:58;16.50;82.80
3408;DHT22;1717;50.240;8.406;2024-03-02T14:47:26;16.40;83.30
3408;DHT22;1717;50.240;8.406;2024-03-02T14:49:52;16.30;82.50
3408;DHT22;1717;50.240;8.406;2024-03-02T14:52:21;16.40;83.80
3408;DHT22;1717;50.240;8.406;2024-03-02T14:54:48;16.40;83.40
3408;DHT22;1717;50.240;8.406;2024-03-02T14:57:14;16.40;82.90
3408;DHT22;1717;50.240;8.406;2024-03-02T14:59:41;16.30;82.20
3408;DHT22;1717;50.240;8.406;2024-03-02T15:02:09;16.40;82.90
3408;DHT22;1717;50.240;8.406;2024-03-02T15:04:36;16.40;82.50
3408;DHT22;1717;50.240;8.406;2024-03-02T15:07:03;16.40;82.80
3408;DHT22;1717;50.240;8.406;2024-03-02T15:09:31;16.50;82.80
3408;DHT22;1717;50.240;8.406;2024-03-02T15:12:00;16.50;82.80
3408;DHT22;1717;50.240;8.406;2024-03-02T15:14:27;16.50;82.90
3408;DHT22;1717;50.240;8.406;2024-03-02T15:16:54;16.40;83.00
3408;DHT22;1717;50.240;8.406;2024-03-02T15:19:21;16.40;83.20
3408;DHT22;1717;50.240;8.406;2024-03-02T15:21:48;16.50;82.50
3408;DHT22;1717;50.240;8.406;2024-03-02T15:24:15;16.50;83.00
3408;DHT22;1717;50.240;8.406;2024-03-02T15:26:44;16.50;83.10
3408;DHT22;1717;50.240;8.406;2024-03-02T15:29:10;16.50;82.90
3408;DHT22;1717;50.240;8.406;2024-03-02T15:31:37;16.20;82.60
3408;DHT22;1717;50.240;8.406;2024-03-02T15:34:04;16.20;83.50
3408;DHT22;1717;50.240;8.406;2024-03-02T15:36:33;16.00;83.50
3408;DHT22;1717;50.240;8.406;2024-03-02T15:39:01;16.00;84.00
3408;DHT22;1717;50.240;8.406;2024-03-02T15:41:34;15.90;84.20
3408;DHT22;1717;50.240;8.406;2024-03-02T15:44:02;15.60;85.10
3408;DHT22;1717;50.240;8.406;2024-03-02T15:46:29;15.50;87.80
3408;DHT22;1717;50.240;8.406;2024-03-02T15:48:56;15.60;90.50
3408;DHT22;1717;50.240;8.406;2024-03-02T15:51:23;15.60;92.80
3408;DHT22;1717;50.240;8.406;2024-03-02T15:53:50;15.70;94.20
3408;DHT22;1717;50.240;8.406;2024-03-02T15:56:17;15.70;95.50
3408;DHT22;1717;50.240;8.406;2024-03-02T15:58:44;15.80;96.90
3408;DHT22;1717;50.240;8.406;2024-03-02T16:01:13;15.70;97.90
3408;DHT22;1717;50.240;8.406;2024-03-02T16:03:40;15.70;97.70
3408;DHT22;1717;50.240;8.406;2024-03-02T16:06:06;15.70;98.60
3408;DHT22;1717;50.240;8.406;2024-03-02T16:08:33;15.60;97.80
3408;DHT22;1717;50.240;8.406;2024-03-02T16:11:01;15.60;99.10
3408;DHT22;1717;50.240;8.406;2024-03-02T16:13:28;15.60;99.90